createdAt,value
2022-12-16T00:01:16.187Z,52.78
2022-12-16T00:03:48.417Z,49.00
2022-12-16T00:06:17.104Z,50.42
2022-12-16T00:08:45.586Z,48.70
2022-12-16T00:11:14.140Z,47.65
2022-12-16T00:13:42.411Z,50.45
2022-12-16T00:16:12.274Z,41.78
2022-12-16T00:18:42.480Z,47.20
2022-12-16T00:21:11.258Z,46.55
2022-12-16T00:23:41.662Z,54.33
2022-12-16T00:26:10.237Z,48.75
2022-12-16T00:28:38.545Z,51.63
2022-12-16T00:31:07.568Z,48.40
2022-12-16T00:33:36.372Z,46.65
2022-12-16T00:36:06.791Z,49.00
2022-12-16T00:38:35.322Z,50.15
2022-12-16T00:41:03.673Z,50.63
2022-12-16T00:43:32.328Z,52.30
2022-12-16T00:46:01.028Z,47.72
2022-12-16T00:48:29.500Z,36.17
2022-12-16T00:50:57.717Z,50.47
2022-12-16T00:53:27.318Z,50.17
2022-12-16T00:56:03.064Z,53.67
2022-12-16T00:58:31.307Z,53.97
2022-12-16T01:00:59.587Z,50.80
2022-12-16T01:03:28.198Z,50.72
2022-12-16T01:05:56.652Z,50.00
2022-12-16T01:08:25.086Z,50.60
2022-12-16T01:10:56.097Z,52.38
2022-12-16T01:13:25.851Z,49.50
2022-12-16T01:15:54.142Z,49.17
2022-12-16T01:18:22.517Z,50.85
2022-12-16T01:20:51.399Z,46.85
2022-12-16T01:23:20.050Z,34.63
2022-12-16T01:25:52.235Z,47.28
2022-12-16T01:28:21.819Z,45.90
2022-12-16T01:30:50.077Z,43.85
2022-12-16T01:33:18.426Z,47.15
2022-12-16T01:35:55.841Z,46.03
2022-12-16T01:38:24.799Z,46.03
2022-12-16T01:40:55.228Z,48.63
2022-12-16T01:43:27.145Z,45.67
2022-12-16T01:45:58.088Z,47.22
2022-12-16T01:48:34.188Z,40.20
2022-12-16T01:51:06.221Z,29.55
2022-12-16T01:53:35.671Z,37.28
2022-12-16T01:56:04.768Z,39.20
2022-12-16T01:58:36.306Z,42.17
2022-12-16T02:01:04.762Z,28.95
2022-12-16T02:03:36.940Z,43.13
2022-12-16T02:06:07.719Z,42.70
2022-12-16T02:08:36.705Z,43.75
2022-12-16T02:11:12.186Z,43.40
2022-12-16T02:13:58.240Z,43.10
2022-12-16T02:16:33.238Z,36.03
2022-12-16T02:19:09.047Z,38.88
2022-12-16T02:21:54.940Z,33.15
2022-12-16T02:24:38.235Z,31.77
2022-12-16T02:27:45.395Z,34.78
2022-12-16T02:30:29.906Z,40.83
2022-12-16T02:33:04.044Z,63.03
2022-12-16T02:35:36.790Z,45.95
2022-12-16T02:38:14.893Z,40.42
2022-12-16T02:40:46.078Z,34.67
2022-12-16T02:43:19.821Z,41.58
2022-12-16T02:45:50.291Z,41.28
2022-12-16T02:48:18.665Z,43.20
2022-12-16T02:50:48.610Z,45.45
2022-12-16T02:53:17.040Z,38.95
2022-12-16T02:55:54.229Z,37.10
2022-12-16T02:58:28.729Z,24.73
2022-12-16T03:01:05.357Z,60.03
2022-12-16T03:03:37.635Z,40.35
2022-12-16T03:06:06.740Z,45.40
2022-12-16T03:08:37.921Z,49.35
2022-12-16T03:11:08.194Z,49.58
2022-12-16T03:13:40.581Z,42.13
2022-12-16T03:16:12.329Z,48.17
2022-12-16T03:18:43.354Z,44.08
2022-12-16T03:21:12.385Z,41.75
2022-12-16T03:23:44.487Z,49.13
2022-12-16T03:26:16.747Z,37.00
2022-12-16T03:28:50.546Z,29.48
2022-12-16T03:31:29.179Z,42.08
2022-12-16T03:34:00.514Z,46.03
2022-12-16T03:36:30.968Z,45.85
2022-12-16T03:39:01.508Z,32.17
2022-12-16T03:43:57.844Z,47.28
2022-12-16T03:46:27.950Z,47.05
2022-12-16T03:48:56.317Z,54.42
2022-12-16T03:51:24.544Z,48.55
2022-12-16T03:53:52.783Z,48.13
2022-12-16T03:56:21.046Z,51.72
2022-12-16T03:58:49.300Z,58.90
2022-12-16T04:01:17.573Z,49.53
2022-12-16T04:03:47.247Z,50.08
2022-12-16T04:06:18.563Z,50.80
2022-12-16T04:08:46.895Z,54.58
2022-12-16T04:11:32.770Z,36.83
2022-12-16T04:14:18.625Z,55.58
2022-12-16T04:17:04.647Z,57.30
2022-12-16T04:19:55.313Z,48.92
2022-12-16T04:22:43.982Z,42.08
2022-12-16T04:25:15.372Z,54.63
2022-12-16T04:27:47.180Z,58.30
2022-12-16T04:30:22.298Z,25.85
2022-12-16T04:33:11.796Z,57.85
2022-12-16T04:35:59.086Z,59.55
2022-12-16T04:38:44.967Z,61.58
2022-12-16T04:41:31.085Z,56.30
2022-12-16T04:44:17.185Z,54.92
2022-12-16T04:47:03.137Z,62.25
2022-12-16T04:49:49.195Z,44.92
2022-12-16T04:52:36.958Z,60.78
2022-12-16T04:55:23.373Z,60.63
2022-12-16T04:58:10.958Z,60.35
2022-12-16T05:00:56.864Z,58.22
2022-12-16T05:03:42.797Z,59.30
2022-12-16T05:06:28.708Z,60.13
2022-12-16T05:09:15.884Z,60.50
2022-12-16T05:12:01.759Z,57.97
2022-12-16T05:14:46.978Z,52.80
2022-12-16T05:17:32.769Z,61.10
2022-12-16T05:20:18.796Z,62.75
2022-12-16T05:23:05.244Z,50.42
2022-12-16T05:25:52.402Z,56.17
2022-12-16T05:28:38.407Z,41.22
2022-12-16T05:31:24.372Z,60.67
2022-12-16T05:34:10.283Z,65.35
2022-12-16T05:36:56.416Z,61.65
2022-12-16T05:39:42.366Z,62.83
2022-12-16T05:42:29.657Z,62.83
2022-12-16T05:45:15.537Z,60.78
2022-12-16T05:48:01.372Z,60.33
2022-12-16T05:50:47.250Z,58.58
2022-12-16T05:53:33.622Z,43.90
2022-12-16T05:56:19.687Z,54.88
2022-12-16T05:59:15.193Z,67.78
2022-12-16T06:02:01.382Z,62.00
2022-12-16T06:04:47.536Z,62.20
2022-12-16T06:07:33.296Z,60.83
2022-12-16T06:10:19.178Z,63.58
2022-12-16T06:13:05.637Z,64.78
2022-12-16T06:15:52.576Z,61.58
2022-12-16T06:18:38.479Z,57.88
2022-12-16T06:21:24.358Z,55.78
2022-12-16T06:24:10.403Z,59.63
2022-12-16T06:26:56.547Z,57.58
2022-12-16T06:29:41.584Z,63.38
2022-12-16T06:32:28.643Z,43.00
2022-12-16T06:35:14.766Z,63.92
2022-12-16T06:38:00.615Z,64.68
2022-12-16T06:40:46.666Z,63.95
2022-12-16T06:43:32.892Z,63.13
2022-12-16T06:46:19.122Z,61.47
2022-12-16T06:49:06.559Z,58.78
2022-12-16T06:51:52.636Z,58.33
2022-12-16T06:54:37.691Z,56.55
2022-12-16T06:57:23.700Z,67.05
2022-12-16T07:00:09.813Z,60.88
2022-12-16T07:02:55.794Z,63.42
2022-12-16T07:05:43.386Z,51.05
2022-12-16T07:08:29.179Z,61.10
2022-12-16T07:11:17.053Z,60.92
2022-12-16T07:14:03.226Z,47.60
2022-12-16T07:17:03.674Z,57.08
2022-12-16T07:19:49.587Z,57.53
2022-12-16T07:22:36.805Z,61.22
2022-12-16T07:25:23.255Z,64.85
2022-12-16T07:28:15.126Z,60.50
2022-12-16T07:31:02.203Z,61.50
2022-12-16T07:33:48.270Z,54.00
2022-12-16T07:36:34.426Z,55.78
2022-12-16T07:39:18.013Z,54.55
2022-12-16T07:42:03.795Z,57.45
2022-12-16T07:44:49.848Z,55.28
2022-12-16T07:47:35.737Z,61.80
2022-12-16T07:50:21.645Z,60.42
2022-12-16T07:53:13.120Z,61.88
2022-12-16T07:56:00.426Z,57.85
2022-12-16T07:58:46.209Z,62.08
2022-12-16T08:01:32.249Z,57.83
2022-12-16T08:04:18.253Z,57.38
2022-12-16T08:07:04.156Z,51.97
2022-12-16T08:09:50.049Z,47.60
2022-12-16T08:12:37.444Z,41.88
2022-12-16T08:15:24.272Z,55.28
2022-12-16T08:18:10.779Z,54.50
2022-12-16T08:20:57.237Z,56.63
2022-12-16T08:23:43.047Z,58.85
2022-12-16T08:26:29.135Z,60.05
2022-12-16T08:29:42.625Z,55.65
2022-12-16T08:32:22.020Z,46.75
2022-12-16T08:35:08.018Z,53.00
2022-12-16T08:37:54.516Z,51.58
2022-12-16T08:40:41.268Z,45.45
2022-12-16T08:43:27.228Z,49.17
2022-12-16T08:46:14.512Z,53.13
2022-12-16T08:49:05.848Z,52.33
2022-12-16T08:51:51.581Z,37.08
2022-12-16T08:54:37.750Z,47.38
2022-12-16T08:57:23.706Z,47.60
2022-12-16T09:00:09.387Z,54.03
2022-12-16T09:02:56.777Z,48.22
2022-12-16T09:05:42.890Z,43.17
2022-12-16T09:08:28.766Z,47.97
2022-12-16T09:11:18.917Z,46.80
2022-12-16T09:14:05.339Z,46.78
2022-12-16T09:16:51.409Z,45.25
2022-12-16T09:19:38.823Z,46.58
2022-12-16T09:22:24.799Z,33.70
2022-12-16T09:25:13.111Z,43.63
2022-12-16T09:27:59.398Z,43.88
2022-12-16T09:30:45.385Z,41.47
2022-12-16T09:33:27.556Z,50.17
2022-12-16T09:36:15.246Z,44.58
2022-12-16T09:39:01.002Z,39.78
2022-12-16T09:42:00.316Z,47.60
2022-12-16T09:44:53.327Z,34.65
2022-12-16T09:47:47.406Z,45.25
2022-12-16T09:50:38.912Z,51.28
2022-12-16T09:53:30.235Z,51.50
2022-12-16T09:56:16.933Z,54.10
2022-12-16T09:59:06.417Z,51.42
2022-12-16T10:01:55.001Z,48.42
2022-12-16T10:04:43.708Z,55.63
2022-12-16T10:07:35.084Z,52.30
2022-12-16T10:10:35.458Z,53.95
2022-12-16T10:13:28.487Z,48.25
2022-12-16T10:16:20.649Z,48.17
2022-12-16T10:19:13.941Z,47.92
2022-12-16T10:22:05.103Z,43.88
2022-12-16T10:25:00.238Z,47.55
2022-12-16T10:27:52.897Z,51.28
2022-12-16T10:30:39.311Z,46.13
2022-12-16T10:33:28.018Z,51.35
2022-12-16T10:36:14.580Z,52.65
2022-12-16T10:39:03.083Z,51.33
2022-12-16T10:41:52.013Z,49.88
2022-12-16T10:44:42.977Z,48.45
2022-12-16T10:47:29.776Z,52.00
2022-12-16T10:50:16.000Z,39.58
2022-12-16T10:53:14.216Z,41.00
2022-12-16T10:56:13.067Z,43.33
2022-12-16T10:59:05.691Z,50.00
2022-12-16T11:01:53.332Z,50.45
2022-12-16T11:04:48.182Z,48.85
2022-12-16T11:07:58.742Z,52.40
2022-12-16T11:10:51.240Z,44.72
2022-12-16T11:13:40.066Z,48.90
2022-12-16T11:16:29.517Z,42.45
2022-12-16T11:19:16.948Z,48.22
2022-12-16T11:22:03.425Z,39.72
2022-12-16T11:24:49.854Z,50.38
2022-12-16T11:27:41.979Z,51.95
2022-12-16T11:30:40.184Z,43.20
2022-12-16T11:33:36.005Z,41.42
2022-12-16T11:36:31.171Z,44.50
2022-12-16T11:39:17.506Z,44.25
2022-12-16T11:42:05.983Z,48.47
2022-12-16T11:44:55.549Z,44.13
2022-12-16T11:47:48.481Z,41.20
2022-12-16T11:50:39.233Z,39.97
2022-12-16T11:53:57.154Z,42.80
2022-12-16T11:56:45.637Z,35.63
2022-12-16T11:59:40.243Z,46.45
2022-12-16T12:02:30.656Z,41.65
2022-12-16T12:05:16.555Z,37.10
2022-12-16T12:08:06.899Z,40.15
2022-12-16T12:11:08.197Z,34.72
2022-12-16T12:14:05.073Z,39.53
2022-12-16T12:16:58.346Z,35.50
2022-12-16T12:20:07.422Z,38.72
2022-12-16T12:22:54.980Z,27.60
2022-12-16T12:25:47.008Z,30.92
2022-12-16T12:28:42.691Z,31.23
2022-12-16T12:31:39.384Z,37.05
2022-12-16T12:34:31.766Z,41.50
2022-12-16T12:37:24.123Z,44.90
2022-12-16T12:40:14.408Z,36.33
2022-12-16T12:43:04.337Z,38.35
2022-12-16T12:46:14.159Z,43.83
2022-12-16T12:49:05.093Z,31.77
2022-12-16T12:51:56.433Z,37.58
2022-12-16T12:54:50.332Z,35.10
2022-12-16T12:57:39.748Z,42.20
2022-12-16T13:00:33.984Z,39.05
2022-12-16T13:03:24.618Z,39.80
2022-12-16T13:09:12.444Z,33.03
2022-12-16T13:12:06.153Z,40.40
2022-12-16T13:15:12.661Z,38.63
2022-12-16T13:18:39.714Z,32.70
2022-12-16T13:21:59.437Z,33.03
2022-12-16T13:25:01.574Z,32.72
2022-12-16T13:27:48.678Z,33.15
2022-12-16T13:30:43.060Z,40.08
2022-12-16T13:33:45.412Z,39.17
2022-12-16T13:36:33.467Z,42.00
2022-12-16T13:39:36.464Z,41.45
2022-12-16T13:42:22.871Z,47.00
2022-12-16T13:45:34.498Z,39.80
2022-12-16T13:48:23.073Z,41.25
2022-12-16T13:51:18.646Z,39.97
2022-12-16T13:54:08.633Z,33.38
2022-12-16T13:56:58.694Z,38.17
2022-12-16T13:59:47.867Z,41.85
2022-12-16T14:02:42.933Z,32.55
2022-12-16T14:05:39.542Z,34.47
2022-12-16T14:08:31.430Z,34.90
2022-12-16T14:11:20.221Z,26.90
2022-12-16T14:14:11.495Z,34.42
2022-12-16T14:17:05.573Z,40.10
2022-12-16T14:19:57.006Z,40.83
2022-12-16T14:22:50.070Z,35.20
2022-12-16T14:25:54.334Z,29.60
2022-12-16T14:28:46.336Z,25.92
2022-12-16T14:31:34.939Z,32.97
2022-12-16T14:34:22.690Z,24.17
2022-12-16T14:37:08.666Z,23.83
2022-12-16T14:39:57.489Z,34.85
2022-12-16T14:42:46.857Z,29.88
2022-12-16T14:45:45.921Z,30.23
2022-12-16T14:48:47.638Z,39.72
2022-12-16T14:51:46.769Z,38.58
2022-12-16T14:54:41.935Z,32.33
2022-12-16T14:57:32.938Z,41.00
2022-12-16T15:00:28.837Z,34.40
2022-12-16T15:03:16.108Z,35.95
2022-12-16T15:06:02.138Z,33.13
2022-12-16T15:08:50.168Z,24.95
2022-12-16T15:11:38.753Z,27.52
2022-12-16T15:14:25.077Z,33.42
2022-12-16T15:17:12.361Z,37.97
2022-12-16T15:20:03.796Z,38.40
2022-12-16T15:22:50.117Z,35.70
2022-12-16T15:25:38.008Z,39.10
2022-12-16T15:28:23.887Z,43.30
2022-12-16T15:31:09.969Z,44.45
2022-12-16T15:33:58.246Z,40.97
2022-12-16T15:36:46.634Z,43.92
2022-12-16T15:39:40.827Z,44.45
2022-12-16T15:42:38.066Z,43.45
2022-12-16T15:45:25.112Z,36.40
2022-12-16T15:48:10.938Z,45.50
2022-12-16T15:50:58.288Z,38.17
2022-12-16T15:53:49.018Z,40.05
2022-12-16T15:56:38.901Z,38.53
2022-12-16T15:59:41.468Z,37.45
2022-12-16T16:02:34.481Z,41.28
2022-12-16T16:05:20.559Z,28.75
2022-12-16T16:08:13.132Z,31.08
2022-12-16T16:11:00.799Z,36.88
2022-12-16T16:13:46.786Z,41.83
2022-12-16T16:16:32.617Z,34.25
2022-12-16T16:19:19.293Z,34.60
2022-12-16T16:22:05.022Z,34.83
2022-12-16T16:24:52.330Z,22.67
2022-12-16T16:27:38.661Z,26.27
2022-12-16T16:30:25.563Z,37.05
2022-12-16T16:33:11.530Z,25.13
2022-12-16T16:35:57.496Z,28.00
2022-12-16T16:38:43.211Z,33.65
2022-12-16T16:41:32.753Z,40.50
2022-12-16T16:44:19.942Z,31.65
2022-12-16T16:47:02.526Z,32.47
2022-12-16T16:49:49.966Z,35.35
2022-12-16T16:52:37.910Z,31.20
2022-12-16T16:55:24.189Z,29.42
2022-12-16T16:58:11.557Z,22.05
2022-12-16T17:01:02.813Z,30.58
2022-12-16T17:03:48.962Z,36.63
2022-12-16T17:06:34.972Z,42.92
2022-12-16T17:09:39.627Z,28.15
2022-12-16T17:12:46.560Z,42.55
2022-12-16T17:15:39.096Z,38.85
2022-12-16T17:18:25.621Z,35.28
2022-12-16T17:21:12.029Z,30.70
2022-12-16T17:23:57.893Z,35.60
2022-12-16T17:26:43.877Z,41.55
2022-12-16T17:29:36.781Z,40.35
2022-12-16T17:32:24.335Z,29.00
2022-12-16T17:35:10.291Z,32.58
2022-12-16T17:37:56.258Z,28.25
2022-12-16T17:40:42.167Z,23.13
2022-12-16T17:43:28.263Z,31.65
2022-12-16T17:46:15.286Z,33.97
2022-12-16T17:49:02.305Z,40.08
2022-12-16T17:51:48.150Z,26.35
2022-12-16T17:54:34.087Z,30.77
2022-12-16T17:57:19.842Z,37.13
2022-12-16T18:00:05.739Z,35.72
2022-12-16T18:02:47.987Z,37.88
2022-12-16T18:05:42.403Z,21.95
2022-12-16T18:08:29.902Z,27.40
2022-12-16T18:11:18.099Z,33.60
2022-12-16T18:14:03.830Z,33.80
2022-12-16T18:16:49.742Z,30.30
2022-12-16T18:19:35.823Z,29.95
2022-12-16T18:22:37.531Z,36.78
2022-12-16T18:25:23.979Z,30.00
2022-12-16T18:28:09.818Z,30.83
2022-12-16T18:31:10.268Z,26.33
2022-12-16T18:33:55.986Z,27.20
2022-12-16T18:36:41.912Z,24.85
2022-12-16T18:39:29.127Z,31.75
2022-12-16T18:42:15.072Z,24.45
2022-12-16T18:45:01.434Z,31.27
2022-12-16T18:47:47.623Z,36.28
2022-12-16T18:50:37.778Z,33.42
2022-12-16T18:56:19.630Z,23.88
2022-12-16T18:59:10.833Z,28.48
2022-12-16T19:01:56.903Z,34.88
2022-12-16T19:04:42.727Z,32.00
2022-12-16T19:07:31.780Z,33.55
2022-12-16T19:10:19.649Z,33.03
2022-12-16T19:13:06.896Z,33.20
2022-12-16T19:15:52.880Z,28.35
2022-12-16T19:18:38.782Z,28.42
2022-12-16T19:21:24.668Z,18.67
2022-12-16T19:24:10.772Z,32.20
2022-12-16T19:26:56.846Z,28.90
2022-12-16T19:29:43.905Z,28.00
2022-12-16T19:32:30.053Z,32.50
2022-12-16T19:35:16.073Z,25.67
2022-12-16T19:38:01.780Z,29.55
2022-12-16T19:40:47.411Z,13.00
2022-12-16T19:43:34.520Z,31.45
2022-12-16T19:46:23.937Z,28.70
2022-12-16T19:49:10.147Z,29.05
2022-12-16T19:55:03.956Z,34.03
2022-12-16T19:57:49.905Z,25.05
2022-12-16T20:00:35.597Z,31.98
2022-12-16T20:03:22.852Z,25.83
2022-12-16T20:06:20.039Z,30.42
2022-12-16T20:09:08.492Z,30.10
2022-12-16T20:11:55.521Z,31.38
2022-12-16T20:14:41.989Z,28.00
2022-12-16T20:17:28.206Z,26.60
2022-12-16T20:20:15.441Z,30.23
2022-12-16T20:23:01.370Z,23.23
2022-12-16T20:25:47.220Z,17.77
2022-12-16T20:28:33.149Z,19.80
2022-12-16T20:31:19.647Z,21.65
2022-12-16T20:34:05.670Z,26.13
2022-12-16T20:36:55.151Z,25.40
2022-12-16T20:39:42.126Z,32.25
2022-12-16T20:42:27.927Z,16.73
2022-12-16T20:45:13.882Z,28.50
2022-12-16T20:47:59.822Z,25.15
2022-12-16T20:50:45.703Z,18.08
2022-12-16T20:53:32.940Z,23.25
2022-12-16T20:56:19.529Z,25.77
2022-12-16T20:59:05.482Z,30.83
2022-12-16T21:02:21.214Z,30.23
2022-12-16T21:04:57.277Z,22.90
2022-12-16T21:07:45.388Z,31.48
2022-12-16T21:10:32.528Z,35.42
2022-12-16T21:13:24.662Z,27.35
2022-12-16T21:16:10.570Z,22.67
2022-12-16T21:18:56.466Z,36.50
2022-12-16T21:21:42.560Z,31.08
2022-12-16T21:24:28.588Z,29.08
2022-12-16T21:27:15.708Z,29.77
2022-12-16T21:30:01.630Z,33.47
2022-12-16T21:32:47.575Z,26.95
2022-12-16T21:35:33.529Z,31.95
2022-12-16T21:38:19.479Z,26.00
2022-12-16T21:41:10.088Z,35.88
2022-12-16T21:46:42.460Z,25.77
2022-12-16T21:49:28.455Z,25.38
2022-12-16T21:52:14.205Z,20.65
2022-12-16T21:55:00.206Z,23.75
2022-12-16T21:57:46.026Z,31.65
2022-12-16T22:00:34.081Z,25.83
2022-12-16T22:03:20.035Z,11.85
2022-12-16T22:06:05.971Z,31.05
2022-12-16T22:08:52.063Z,25.05
2022-12-16T22:11:37.928Z,31.73
2022-12-16T22:14:23.688Z,30.98
2022-12-16T22:17:10.984Z,30.38
2022-12-16T22:19:57.012Z,26.73
2022-12-16T22:22:42.909Z,32.28
2022-12-16T22:25:28.861Z,19.20
2022-12-16T22:28:14.769Z,22.88
2022-12-16T22:31:00.773Z,32.72
2022-12-16T22:33:48.644Z,30.15
2022-12-16T22:36:20.396Z,33.95
2022-12-16T22:36:34.663Z,22.38
2022-12-16T22:39:20.424Z,29.27
2022-12-16T22:42:06.266Z,29.30
2022-12-16T22:44:52.013Z,31.73
2022-12-16T22:47:38.029Z,25.55
2022-12-16T22:50:26.460Z,34.20
2022-12-16T22:53:12.345Z,35.10
2022-12-16T22:56:01.916Z,35.35
2022-12-16T22:58:48.081Z,25.83
2022-12-16T23:01:34.097Z,31.13
2022-12-16T23:04:20.184Z,30.08
2022-12-16T23:07:07.468Z,25.88
2022-12-16T23:09:53.510Z,39.72
2022-12-16T23:12:39.940Z,29.23
2022-12-16T23:15:28.469Z,33.35
2022-12-16T23:18:14.514Z,25.13
2022-12-16T23:21:04.025Z,27.88
2022-12-16T23:23:51.342Z,24.52
2022-12-16T23:26:38.627Z,30.55
2022-12-16T23:29:24.577Z,26.75
2022-12-16T23:32:10.514Z,31.80
2022-12-16T23:34:59.029Z,27.42
2022-12-16T23:37:45.030Z,32.50
2022-12-16T23:40:32.184Z,36.80
2022-12-16T23:43:18.030Z,31.10
2022-12-16T23:46:03.983Z,34.65
2022-12-16T23:48:49.966Z,32.10
2022-12-16T23:51:35.950Z,37.63
2022-12-16T23:54:21.680Z,27.90
2022-12-16T23:57:08.901Z,38.20
2022-12-16T23:59:55.678Z,37.70
